sensor_id;sensor_type;location;lat;lon;timestamp;pressure;altitude;pressure_sealevel;temperature;humidity
59407;BME280;45208;32.616;-115.472;2022-11-23T00:01:13;101641.78;;;38.21;nan
59407;BME280;45208;32.616;-115.472;2022-11-23T00:03:41;101634.63;;;38.96;nan
59407;BME280;45208;32.616;-115.472;2022-11-23T00:06:07;101638.81;;;38.72;nan
59407;BME280;45208;32.616;-115.472;2022-11-23T00:08:34;101632.47;;;37.97;nan
59407;BME280;45208;32.616;-115.472;2022-11-23T00:11:00;101642.66;;;39.01;nan
59407;BME280;45208;32.616;-115.472;2022-11-23T00:13:26;101624.47;;;39.51;nan
59407;BME280;45208;32.616;-115.472;2022-11-23T00:15:53;101625.94;;;39.59;nan
59407;BME280;45208;32.616;-115.472;2022-11-23T00:18:19;101623.75;;;39.47;nan
59407;BME280;45208;32.616;-115.472;2022-11-23T00:20:45;101624.78;;;40.05;nan
59407;BME280;45208;32.616;-115.472;2022-11-23T00:23:11;101628.25;;;39.97;nan
59407;BME280;45208;32.616;-115.472;2022-11-23T00:25:37;101628.56;;;39.82;nan
59407;BME280;45208;32.616;-115.472;2022-11-23T00:28:04;101617.19;;;39.82;nan
59407;BME280;45208;32.616;-115.472;2022-11-23T00:30:30;101626.22;;;39.45;nan
59407;BME280;45208;32.616;-115.472;2022-11-23T00:32:56;101629.72;;;39.36;nan
59407;BME280;45208;32.616;-115.472;2022-11-23T00:35:22;101626.75;;;39.23;nan
59407;BME280;45208;32.616;-115.472;2022-11-23T00:37:49;101624.13;;;39.13;nan
59407;BME280;45208;32.616;-115.472;2022-11-23T00:40:15;101630.41;;;39.04;nan
59407;BME280;45208;32.616;-115.472;2022-11-23T00:42:41;101624.81;;;38.81;nan
59407;BME280;45208;32.616;-115.472;2022-11-23T00:45:08;101625.66;;;38.58;nan
59407;BME280;45208;32.616;-115.472;2022-11-23T00:47:34;101625.22;;;38.39;nan
59407;BME280;45208;32.616;-115.472;2022-11-23T00:50:03;101615.06;;;38.19;nan
59407;BME280;45208;32.616;-115.472;2022-11-23T00:52:29;101623.25;;;38.13;nan
59407;BME280;45208;32.616;-115.472;2022-11-23T00:54:55;101621.91;;;37.98;nan
59407;BME280;45208;32.616;-115.472;2022-11-23T00:57:22;101621.41;;;37.79;nan
59407;BME280;45208;32.616;-115.472;2022-11-23T00:59:48;101620.00;;;37.64;nan
59407;BME280;45208;32.616;-115.472;2022-11-23T01:02:15;101628.31;;;37.51;nan
59407;BME280;45208;32.616;-115.472;2022-11-23T01:04:41;101623.63;;;37.41;nan
59407;BME280;45208;32.616;-115.472;2022-11-23T01:07:07;101628.72;;;37.23;nan
59407;BME280;45208;32.616;-115.472;2022-11-23T01:09:33;101624.22;;;36.99;nan
59407;BME280;45208;32.616;-115.472;2022-11-23T01:11:59;101636.44;;;36.92;nan
59407;BME280;45208;32.616;-115.472;2022-11-23T01:14:26;101632.38;;;36.93;nan
59407;BME280;45208;32.616;-115.472;2022-11-23T01:16:52;101641.34;;;36.88;nan
59407;BME280;45208;32.616;-115.472;2022-11-23T01:19:18;101638.19;;;36.82;nan
59407;BME280;45208;32.616;-115.472;2022-11-23T01:21:50;101641.44;;;36.77;nan
59407;BME280;45208;32.616;-115.472;2022-11-23T01:24:21;101646.06;;;36.64;nan
59407;BME280;45208;32.616;-115.472;2022-11-23T01:26:51;101643.41;;;36.50;nan
59407;BME280;45208;32.616;-115.472;2022-11-23T01:29:18;101646.75;;;36.38;nan
59407;BME280;45208;32.616;-115.472;2022-11-23T01:31:45;101648.44;;;36.31;nan
59407;BME280;45208;32.616;-115.472;2022-11-23T01:34:14;101642.03;;;36.20;nan
59407;BME280;45208;32.616;-115.472;2022-11-23T01:36:43;101649.38;;;36.14;nan
59407;BME280;45208;32.616;-115.472;2022-11-23T01:39:11;101650.22;;;36.11;nan
59407;BME280;45208;32.616;-115.472;2022-11-23T01:41:38;101654.34;;;36.03;nan
59407;BME280;45208;32.616;-115.472;2022-11-23T01:46:53;101647.91;;;35.99;nan
59407;BME280;45208;32.616;-115.472;2022-11-23T01:49:19;101640.63;;;35.98;nan
59407;BME280;45208;32.616;-115.472;2022-11-23T01:51:48;101658.53;;;35.84;nan
59407;BME280;45208;32.616;-115.472;2022-11-23T01:54:17;101649.25;;;35.84;nan
59407;BME280;45208;32.616;-115.472;2022-11-23T01:56:48;101651.31;;;35.72;nan
59407;BME280;45208;32.616;-115.472;2022-11-23T01:59:18;101649.75;;;35.68;nan
59407;BME280;45208;32.616;-115.472;2022-11-23T02:01:45;101651.41;;;35.62;nan
59407;BME280;45208;32.616;-115.472;2022-11-23T02:04:12;101655.09;;;35.55;nan
59407;BME280;45208;32.616;-115.472;2022-11-23T02:06:43;101657.56;;;35.46;nan
59407;BME280;45208;32.616;-115.472;2022-11-23T02:09:11;101660.41;;;35.46;nan
59407;BME280;45208;32.616;-115.472;2022-11-23T02:11:40;101667.03;;;35.07;nan
59407;BME280;45208;32.616;-115.472;2022-11-23T02:14:06;101666.66;;;35.05;nan
59407;BME280;45208;32.616;-115.472;2022-11-23T02:16:33;101671.88;;;35.10;nan
59407;BME280;45208;32.616;-115.472;2022-11-23T02:19:00;101670.63;;;35.15;nan
59407;BME280;45208;32.616;-115.472;2022-11-23T02:21:26;101675.88;;;35.17;nan
59407;BME280;45208;32.616;-115.472;2022-11-23T02:23:56;101674.72;;;35.00;nan
59407;BME280;45208;32.616;-115.472;2022-11-23T02:26:26;101677.63;;;34.75;nan
59407;BME280;45208;32.616;-115.472;2022-11-23T02:31:28;101683.22;;;34.82;nan
59407;BME280;45208;32.616;-115.472;2022-11-23T02:33:54;101685.72;;;34.59;nan
59407;BME280;45208;32.616;-115.472;2022-11-23T02:36:40;101687.38;;;34.49;nan
59407;BME280;45208;32.616;-115.472;2022-11-23T02:41:43;101691.41;;;34.51;nan
59407;BME280;45208;32.616;-115.472;2022-11-23T02:44:13;101695.03;;;34.48;nan
59407;BME280;45208;32.616;-115.472;2022-11-23T02:46:42;101697.88;;;34.48;nan
59407;BME280;45208;32.616;-115.472;2022-11-23T02:49:08;101699.47;;;34.53;nan
59407;BME280;45208;32.616;-115.472;2022-11-23T02:51:35;101701.88;;;34.40;nan
59407;BME280;45208;32.616;-115.472;2022-11-23T02:54:01;101699.88;;;34.48;nan
59407;BME280;45208;32.616;-115.472;2022-11-23T02:56:28;101707.13;;;34.45;nan
59407;BME280;45208;32.616;-115.472;2022-11-23T02:58:54;101708.34;;;34.19;nan
59407;BME280;45208;32.616;-115.472;2022-11-23T03:01:21;101708.72;;;34.21;nan
59407;BME280;45208;32.616;-115.472;2022-11-23T03:03:47;101713.19;;;34.12;nan
59407;BME280;45208;32.616;-115.472;2022-11-23T03:06:14;101718.00;;;33.93;nan
59407;BME280;45208;32.616;-115.472;2022-11-23T03:08:40;101718.00;;;33.93;nan
59407;BME280;45208;32.616;-115.472;2022-11-23T03:11:07;101723.09;;;33.56;nan
59407;BME280;45208;32.616;-115.472;2022-11-23T03:13:33;101721.78;;;33.28;nan
59407;BME280;45208;32.616;-115.472;2022-11-23T03:16:00;101721.91;;;33.57;nan
59407;BME280;45208;32.616;-115.472;2022-11-23T03:18:26;101712.69;;;33.71;nan
59407;BME280;45208;32.616;-115.472;2022-11-23T03:20:53;101720.72;;;33.61;nan
59407;BME280;45208;32.616;-115.472;2022-11-23T03:23:19;101706.66;;;33.76;nan
59407;BME280;45208;32.616;-115.472;2022-11-23T03:25:53;101715.84;;;33.55;nan
59407;BME280;45208;32.616;-115.472;2022-11-23T03:28:19;101717.91;;;33.61;nan
59407;BME280;45208;32.616;-115.472;2022-11-23T03:30:46;101723.91;;;33.56;nan
59407;BME280;45208;32.616;-115.472;2022-11-23T03:33:13;101718.63;;;33.37;nan
59407;BME280;45208;32.616;-115.472;2022-11-23T03:35:39;101714.25;;;33.47;nan
59407;BME280;45208;32.616;-115.472;2022-11-23T03:38:29;101720.22;;;33.38;nan
59407;BME280;45208;32.616;-115.472;2022-11-23T03:40:56;101720.97;;;33.24;nan
59407;BME280;45208;32.616;-115.472;2022-11-23T03:43:24;101726.28;;;33.37;nan
59407;BME280;45208;32.616;-115.472;2022-11-23T03:45:51;101730.97;;;33.11;nan
59407;BME280;45208;32.616;-115.472;2022-11-23T03:48:17;101740.16;;;32.97;nan
59407;BME280;45208;32.616;-115.472;2022-11-23T03:50:44;101732.63;;;32.57;nan
59407;BME280;45208;32.616;-115.472;2022-11-23T03:53:11;101742.94;;;32.87;nan
59407;BME280;45208;32.616;-115.472;2022-11-23T03:55:37;101734.06;;;32.88;nan
59407;BME280;45208;32.616;-115.472;2022-11-23T03:58:03;101736.75;;;32.70;nan
59407;BME280;45208;32.616;-115.472;2022-11-23T04:00:33;101731.16;;;32.78;nan
59407;BME280;45208;32.616;-115.472;2022-11-23T04:03:00;101740.00;;;32.80;nan
59407;BME280;45208;32.616;-115.472;2022-11-23T04:05:45;101734.19;;;33.10;nan
59407;BME280;45208;32.616;-115.472;2022-11-23T04:08:17;101734.59;;;33.08;nan
59407;BME280;45208;32.616;-115.472;2022-11-23T04:10:43;101735.78;;;33.07;nan
59407;BME280;45208;32.616;-115.472;2022-11-23T04:13:16;101736.59;;;33.11;nan
59407;BME280;45208;32.616;-115.472;2022-11-23T04:15:42;101740.97;;;32.98;nan
59407;BME280;45208;32.616;-115.472;2022-11-23T04:18:09;101748.19;;;32.92;nan
59407;BME280;45208;32.616;-115.472;2022-11-23T04:20:37;101748.44;;;32.72;nan
59407;BME280;45208;32.616;-115.472;2022-11-23T04:23:03;101750.50;;;32.83;nan
59407;BME280;45208;32.616;-115.472;2022-11-23T04:25:30;101753.00;;;32.88;nan
59407;BME280;45208;32.616;-115.472;2022-11-23T04:27:58;101755.41;;;32.93;nan
59407;BME280;45208;32.616;-115.472;2022-11-23T04:30:24;101759.78;;;32.83;nan
59407;BME280;45208;32.616;-115.472;2022-11-23T04:32:53;101759.03;;;32.42;nan
59407;BME280;45208;32.616;-115.472;2022-11-23T04:35:20;101757.00;;;32.35;nan
59407;BME280;45208;32.616;-115.472;2022-11-23T04:37:49;101757.06;;;32.02;nan
59407;BME280;45208;32.616;-115.472;2022-11-23T04:40:16;101767.69;;;32.23;nan
59407;BME280;45208;32.616;-115.472;2022-11-23T04:42:52;101764.25;;;31.99;nan
59407;BME280;45208;32.616;-115.472;2022-11-23T04:45:18;101762.13;;;31.89;nan
59407;BME280;45208;32.616;-115.472;2022-11-23T04:47:45;101761.91;;;32.05;nan
59407;BME280;45208;32.616;-115.472;2022-11-23T04:50:13;101754.28;;;31.72;nan
59407;BME280;45208;32.616;-115.472;2022-11-23T04:52:43;101760.97;;;31.94;nan
59407;BME280;45208;32.616;-115.472;2022-11-23T04:55:15;101748.28;;;32.10;nan
59407;BME280;45208;32.616;-115.472;2022-11-23T04:57:49;101757.22;;;32.20;nan
59407;BME280;45208;32.616;-115.472;2022-11-23T05:00:16;101757.31;;;32.30;nan
59407;BME280;45208;32.616;-115.472;2022-11-23T05:02:43;101766.91;;;32.26;nan
59407;BME280;45208;32.616;-115.472;2022-11-23T05:05:17;101766.31;;;32.06;nan
59407;BME280;45208;32.616;-115.472;2022-11-23T05:07:44;101762.69;;;32.02;nan
59407;BME280;45208;32.616;-115.472;2022-11-23T05:10:10;101766.78;;;32.11;nan
59407;BME280;45208;32.616;-115.472;2022-11-23T05:12:37;101766.66;;;31.97;nan
59407;BME280;45208;32.616;-115.472;2022-11-23T05:15:04;101758.53;;;31.92;nan
59407;BME280;45208;32.616;-115.472;2022-11-23T05:17:34;101758.53;;;31.92;nan
59407;BME280;45208;32.616;-115.472;2022-11-23T05:20:04;101764.59;;;31.94;nan
59407;BME280;45208;32.616;-115.472;2022-11-23T05:22:33;101766.53;;;31.86;nan
59407;BME280;45208;32.616;-115.472;2022-11-23T05:25:00;101757.66;;;31.81;nan
59407;BME280;45208;32.616;-115.472;2022-11-23T05:27:28;101760.97;;;31.94;nan
59407;BME280;45208;32.616;-115.472;2022-11-23T05:29:55;101766.97;;;31.92;nan
59407;BME280;45208;32.616;-115.472;2022-11-23T05:32:21;101772.59;;;31.92;nan
59407;BME280;45208;32.616;-115.472;2022-11-23T05:34:47;101783.06;;;31.95;nan
59407;BME280;45208;32.616;-115.472;2022-11-23T05:37:16;101781.41;;;31.87;nan
59407;BME280;45208;32.616;-115.472;2022-11-23T05:39:55;101783.66;;;31.74;nan
59407;BME280;45208;32.616;-115.472;2022-11-23T05:42:22;101776.91;;;31.79;nan
59407;BME280;45208;32.616;-115.472;2022-11-23T05:44:50;101780.13;;;31.81;nan
59407;BME280;45208;32.616;-115.472;2022-11-23T05:47:22;101781.13;;;31.66;nan
59407;BME280;45208;32.616;-115.472;2022-11-23T05:49:49;101775.97;;;31.71;nan
59407;BME280;45208;32.616;-115.472;2022-11-23T05:52:23;101784.41;;;31.71;nan
59407;BME280;45208;32.616;-115.472;2022-11-23T05:54:50;101778.84;;;31.75;nan
59407;BME280;45208;32.616;-115.472;2022-11-23T05:57:19;101778.19;;;31.55;nan
59407;BME280;45208;32.616;-115.472;2022-11-23T05:59:48;101775.34;;;31.51;nan
59407;BME280;45208;32.616;-115.472;2022-11-23T06:02:21;101778.31;;;31.66;nan
59407;BME280;45208;32.616;-115.472;2022-11-23T06:04:52;101780.91;;;31.78;nan
59407;BME280;45208;32.616;-115.472;2022-11-23T06:07:25;101779.41;;;31.88;nan
59407;BME280;45208;32.616;-115.472;2022-11-23T06:10:02;101781.78;;;31.55;nan
59407;BME280;45208;32.616;-115.472;2022-11-23T06:12:30;101791.16;;;31.33;nan
59407;BME280;45208;32.616;-115.472;2022-11-23T06:14:58;101787.22;;;31.41;nan
59407;BME280;45208;32.616;-115.472;2022-11-23T06:17:25;101789.19;;;31.37;nan
59407;BME280;45208;32.616;-115.472;2022-11-23T06:19:58;101799.03;;;30.97;nan
59407;BME280;45208;32.616;-115.472;2022-11-23T06:22:24;101801.72;;;31.17;nan
59407;BME280;45208;32.616;-115.472;2022-11-23T06:25:02;101793.97;;;31.33;nan
59407;BME280;45208;32.616;-115.472;2022-11-23T06:27:29;101799.59;;;31.33;nan
59407;BME280;45208;32.616;-115.472;2022-11-23T06:29:56;101796.72;;;31.30;nan
59407;BME280;45208;32.616;-115.472;2022-11-23T06:32:25;101805.25;;;31.37;nan
59407;BME280;45208;32.616;-115.472;2022-11-23T06:34:51;101800.94;;;31.43;nan
59407;BME280;45208;32.616;-115.472;2022-11-23T06:37:18;101806.09;;;31.41;nan
59407;BME280;45208;32.616;-115.472;2022-11-23T06:39:50;101790.56;;;31.50;nan
59407;BME280;45208;32.616;-115.472;2022-11-23T06:42:16;101782.91;;;31.47;nan
59407;BME280;45208;32.616;-115.472;2022-11-23T06:44:43;101784.19;;;31.53;nan
59407;BME280;45208;32.616;-115.472;2022-11-23T06:47:09;101790.28;;;31.03;nan
59407;BME280;45208;32.616;-115.472;2022-11-23T06:49:35;101794.28;;;30.75;nan
59407;BME280;45208;32.616;-115.472;2022-11-23T06:52:25;101795.06;;;31.25;nan
59407;BME280;45208;32.616;-115.472;2022-11-23T06:54:51;101783.53;;;31.64;nan
59407;BME280;45208;32.616;-115.472;2022-11-23T06:57:18;101787.09;;;31.61;nan
59407;BME280;45208;32.616;-115.472;2022-11-23T06:59:45;101784.72;;;31.63;nan
59407;BME280;45208;32.616;-115.472;2022-11-23T07:02:13;101784.59;;;31.55;nan
59407;BME280;45208;32.616;-115.472;2022-11-23T07:04:40;101785.63;;;31.40;nan
59407;BME280;45208;32.616;-115.472;2022-11-23T07:07:13;101786.94;;;31.20;nan
59407;BME280;45208;32.616;-115.472;2022-11-23T07:09:47;101782.25;;;31.27;nan
59407;BME280;45208;32.616;-115.472;2022-11-23T07:12:29;101782.16;;;31.20;nan
59407;BME280;45208;32.616;-115.472;2022-11-23T07:14:58;101786.84;;;31.13;nan
59407;BME280;45208;32.616;-115.472;2022-11-23T07:17:28;101787.09;;;31.04;nan
59407;BME280;45208;32.616;-115.472;2022-11-23T07:19:54;101784.63;;;30.99;nan
59407;BME280;45208;32.616;-115.472;2022-11-23T07:22:20;101779.72;;;30.92;nan
59407;BME280;45208;32.616;-115.472;2022-11-23T07:24:47;101783.22;;;30.86;nan
59407;BME280;45208;32.616;-115.472;2022-11-23T07:27:15;101776.50;;;30.90;nan
59407;BME280;45208;32.616;-115.472;2022-11-23T07:29:41;101782.47;;;30.89;nan
59407;BME280;45208;32.616;-115.472;2022-11-23T07:32:08;101772.00;;;30.86;nan
59407;BME280;45208;32.616;-115.472;2022-11-23T07:34:35;101770.84;;;30.64;nan
59407;BME280;45208;32.616;-115.472;2022-11-23T07:37:01;101771.47;;;30.54;nan
59407;BME280;45208;32.616;-115.472;2022-11-23T07:39:32;101765.19;;;30.37;nan
59407;BME280;45208;32.616;-115.472;2022-11-23T07:41:58;101763.34;;;30.49;nan
59407;BME280;45208;32.616;-115.472;2022-11-23T07:44:29;101770.41;;;30.62;nan
59407;BME280;45208;32.616;-115.472;2022-11-23T07:46:56;101761.75;;;30.48;nan
59407;BME280;45208;32.616;-115.472;2022-11-23T07:49:22;101765.06;;;30.30;nan
59407;BME280;45208;32.616;-115.472;2022-11-23T07:51:48;101755.13;;;30.14;nan
59407;BME280;45208;32.616;-115.472;2022-11-23T07:54:14;101751.34;;;30.25;nan
59407;BME280;45208;32.616;-115.472;2022-11-23T07:56:42;101758.69;;;30.33;nan
59407;BME280;45208;32.616;-115.472;2022-11-23T07:59:08;101751.34;;;30.25;nan
59407;BME280;45208;32.616;-115.472;2022-11-23T08:01:34;101750.13;;;29.81;nan
59407;BME280;45208;32.616;-115.472;2022-11-23T08:04:00;101748.22;;;29.65;nan
59407;BME280;45208;32.616;-115.472;2022-11-23T08:06:27;101742.44;;;29.77;nan
59407;BME280;45208;32.616;-115.472;2022-11-23T08:08:54;101733.38;;;29.84;nan
59407;BME280;45208;32.616;-115.472;2022-11-23T08:11:20;101739.94;;;29.72;nan
59407;BME280;45208;32.616;-115.472;2022-11-23T08:13:47;101736.09;;;29.81;nan
59407;BME280;45208;32.616;-115.472;2022-11-23T08:16:13;101747.31;;;29.81;nan
59407;BME280;45208;32.616;-115.472;2022-11-23T08:18:39;101744.84;;;29.79;nan
59407;BME280;45208;32.616;-115.472;2022-11-23T08:21:05;101738.25;;;29.68;nan
59407;BME280;45208;32.616;-115.472;2022-11-23T08:23:31;101740.31;;;29.71;nan
59407;BME280;45208;32.616;-115.472;2022-11-23T08:25:58;101750.41;;;29.37;nan
59407;BME280;45208;32.616;-115.472;2022-11-23T08:28:24;101750.84;;;29.58;nan
59407;BME280;45208;32.616;-115.472;2022-11-23T08:30:50;101755.00;;;29.64;nan
59407;BME280;45208;32.616;-115.472;2022-11-23T08:33:16;101741.94;;;29.72;nan
59407;BME280;45208;32.616;-115.472;2022-11-23T08:35:43;101750.03;;;29.77;nan
59407;BME280;45208;32.616;-115.472;2022-11-23T08:38:09;101747.84;;;29.67;nan
59407;BME280;45208;32.616;-115.472;2022-11-23T08:40:36;101745.06;;;29.47;nan
59407;BME280;45208;32.616;-115.472;2022-11-23T08:43:03;101745.88;;;29.48;nan
59407;BME280;45208;32.616;-115.472;2022-11-23T08:45:29;101744.78;;;29.37;nan
59407;BME280;45208;32.616;-115.472;2022-11-23T08:47:59;101736.91;;;29.42;nan
59407;BME280;45208;32.616;-115.472;2022-11-23T08:50:26;101736.09;;;29.42;nan
59407;BME280;45208;32.616;-115.472;2022-11-23T08:52:54;101736.31;;;29.33;nan
59407;BME280;45208;32.616;-115.472;2022-11-23T08:55:22;101737.94;;;29.34;nan
59407;BME280;45208;32.616;-115.472;2022-11-23T08:57:48;101738.44;;;29.40;nan
59407;BME280;45208;32.616;-115.472;2022-11-23T09:00:15;101748.66;;;29.48;nan
59407;BME280;45208;32.616;-115.472;2022-11-23T09:02:41;101750.81;;;29.19;nan
59407;BME280;45208;32.616;-115.472;2022-11-23T09:05:07;101765.56;;;29.36;nan
59407;BME280;45208;32.616;-115.472;2022-11-23T09:07:34;101757.75;;;29.26;nan
59407;BME280;45208;32.616;-115.472;2022-11-23T09:10:00;101755.75;;;29.26;nan
59407;BME280;45208;32.616;-115.472;2022-11-23T09:12:26;101760.72;;;29.33;nan
59407;BME280;45208;32.616;-115.472;2022-11-23T09:14:52;101763.16;;;29.34;nan
59407;BME280;45208;32.616;-115.472;2022-11-23T09:17:19;101758.81;;;29.56;nan
59407;BME280;45208;32.616;-115.472;2022-11-23T09:19:45;101759.44;;;29.46;nan
59407;BME280;45208;32.616;-115.472;2022-11-23T09:22:11;101759.53;;;29.14;nan
59407;BME280;45208;32.616;-115.472;2022-11-23T09:24:38;101758.09;;;29.59;nan
59407;BME280;45208;32.616;-115.472;2022-11-23T09:27:04;101763.16;;;29.34;nan
59407;BME280;45208;32.616;-115.472;2022-11-23T09:29:30;101747.25;;;29.03;nan
59407;BME280;45208;32.616;-115.472;2022-11-23T09:31:56;101754.22;;;29.09;nan
59407;BME280;45208;32.616;-115.472;2022-11-23T09:34:22;101746.94;;;28.89;nan
59407;BME280;45208;32.616;-115.472;2022-11-23T09:36:49;101752.47;;;29.59;nan
59407;BME280;45208;32.616;-115.472;2022-11-23T09:39:15;101748.97;;;30.04;nan
59407;BME280;45208;32.616;-115.472;2022-11-23T09:41:51;101748.91;;;30.24;nan
59407;BME280;45208;32.616;-115.472;2022-11-23T09:44:23;101740.63;;;30.08;nan
59407;BME280;45208;32.616;-115.472;2022-11-23T09:52:18;101750.91;;;29.62;nan
59407;BME280;45208;32.616;-115.472;2022-11-23T09:54:47;101745.88;;;29.48;nan
59407;BME280;45208;32.616;-115.472;2022-11-23T09:57:15;101744.97;;;29.63;nan
59407;BME280;45208;32.616;-115.472;2022-11-23T09:59:46;101739.66;;;29.58;nan
59407;BME280;45208;32.616;-115.472;2022-11-23T10:02:22;101734.22;;;29.46;nan
59407;BME280;45208;32.616;-115.472;2022-11-23T10:04:49;101738.31;;;29.33;nan
59407;BME280;45208;32.616;-115.472;2022-11-23T10:22:47;101707.06;;;28.92;nan
59407;BME280;45208;32.616;-115.472;2022-11-23T10:25:20;101701.84;;;28.75;nan
59407;BME280;45208;32.616;-115.472;2022-11-23T10:27:48;101701.72;;;28.71;nan
59407;BME280;45208;32.616;-115.472;2022-11-23T10:30:15;101708.06;;;28.68;nan
59407;BME280;45208;32.616;-115.472;2022-11-23T10:35:17;101699.44;;;28.57;nan
59407;BME280;45208;32.616;-115.472;2022-11-23T10:37:48;101696.47;;;28.19;nan
59407;BME280;45208;32.616;-115.472;2022-11-23T10:40:21;101694.56;;;28.23;nan
59407;BME280;45208;32.616;-115.472;2022-11-23T10:43:10;101695.84;;;28.41;nan
59407;BME280;45208;32.616;-115.472;2022-11-23T10:45:39;101693.19;;;28.17;nan
59407;BME280;45208;32.616;-115.472;2022-11-23T10:48:05;101690.28;;;28.25;nan
59407;BME280;45208;32.616;-115.472;2022-11-23T10:50:33;101694.75;;;28.46;nan
59407;BME280;45208;32.616;-115.472;2022-11-23T10:55:44;101693.31;;;28.20;nan
59407;BME280;45208;32.616;-115.472;2022-11-23T10:58:54;101691.69;;;28.19;nan
59407;BME280;45208;32.616;-115.472;2022-11-23T11:01:44;101693.59;;;28.31;nan
59407;BME280;45208;32.616;-115.472;2022-11-23T11:03:51;101706.00;;;28.18;nan
59407;BME280;45208;32.616;-115.472;2022-11-23T11:06:22;101695.91;;;28.13;nan
59407;BME280;45208;32.616;-115.472;2022-11-23T11:08:56;101711.06;;;27.96;nan
59407;BME280;45208;32.616;-115.472;2022-11-23T11:11:24;101704.84;;;28.03;nan
59407;BME280;45208;32.616;-115.472;2022-11-23T11:13:59;101693.84;;;27.94;nan
59407;BME280;45208;32.616;-115.472;2022-11-23T11:16:36;101690.75;;;27.99;nan
59407;BME280;45208;32.616;-115.472;2022-11-23T11:19:24;101691.56;;;28.16;nan
59407;BME280;45208;32.616;-115.472;2022-11-23T11:21:51;101693.94;;;28.14;nan
59407;BME280;45208;32.616;-115.472;2022-11-23T11:24:19;101695.81;;;28.10;nan
59407;BME280;45208;32.616;-115.472;2022-11-23T11:26:50;101696.47;;;28.19;nan
59407;BME280;45208;32.616;-115.472;2022-11-23T11:35:07;101687.19;;;28.31;nan
59407;BME280;45208;32.616;-115.472;2022-11-23T11:37:31;101695.19;;;28.00;nan
59407;BME280;45208;32.616;-115.472;2022-11-23T11:42:39;101686.72;;;28.13;nan
59407;BME280;45208;32.616;-115.472;2022-11-23T11:45:11;101686.81;;;28.16;nan
59407;BME280;45208;32.616;-115.472;2022-11-23T11:47:42;101680.97;;;28.06;nan
59407;BME280;45208;32.616;-115.472;2022-11-23T11:50:28;101682.50;;;28.19;nan
59407;BME280;45208;32.616;-115.472;2022-11-23T11:52:58;101690.88;;;28.19;nan
59407;BME280;45208;32.616;-115.472;2022-11-23T11:55:26;101697.91;;;28.13;nan
59407;BME280;45208;32.616;-115.472;2022-11-23T11:58:01;101693.31;;;28.05;nan
59407;BME280;45208;32.616;-115.472;2022-11-23T12:00:27;101688.25;;;28.10;nan
59407;BME280;45208;32.616;-115.472;2022-11-23T12:10:54;101675.63;;;28.16;nan
59407;BME280;45208;32.616;-115.472;2022-11-23T12:13:25;101683.31;;;28.04;nan
59407;BME280;45208;32.616;-115.472;2022-11-23T12:21:12;101693.53;;;27.68;nan
59407;BME280;45208;32.616;-115.472;2022-11-23T12:26:17;101685.44;;;27.94;nan
59407;BME280;45208;32.616;-115.472;2022-11-23T12:39:11;101689.75;;;27.76;nan
59407;BME280;45208;32.616;-115.472;2022-11-23T12:44:16;101696.53;;;27.91;nan
59407;BME280;45208;32.616;-115.472;2022-11-23T12:57:28;101702.50;;;27.61;nan
59407;BME280;45208;32.616;-115.472;2022-11-23T13:05:36;101716.44;;;27.74;nan
59407;BME280;45208;32.616;-115.472;2022-11-23T13:08:20;101722.56;;;27.79;nan
59407;BME280;45208;32.616;-115.472;2022-11-23T13:21:02;101720.06;;;27.62;nan
59407;BME280;45208;32.616;-115.472;2022-11-23T13:23:36;101713.91;;;27.68;nan
59407;BME280;45208;32.616;-115.472;2022-11-23T13:26:13;101723.09;;;27.69;nan
59407;BME280;45208;32.616;-115.472;2022-11-23T13:28:40;101723.19;;;27.73;nan
59407;BME280;45208;32.616;-115.472;2022-11-23T13:33:46;101739.84;;;27.69;nan
59407;BME280;45208;32.616;-115.472;2022-11-23T13:38:55;101728.69;;;27.57;nan
59407;BME280;45208;32.616;-115.472;2022-11-23T13:47:05;101748.97;;;27.54;nan
59407;BME280;45208;32.616;-115.472;2022-11-23T13:49:35;101748.69;;;27.59;nan
59407;BME280;45208;32.616;-115.472;2022-11-23T13:52:24;101743.13;;;27.59;nan
59407;BME280;45208;32.616;-115.472;2022-11-23T13:55:33;101733.66;;;27.48;nan
59407;BME280;45208;32.616;-115.472;2022-11-23T13:57:39;101731.16;;;27.30;nan
59407;BME280;45208;32.616;-115.472;2022-11-23T14:02:50;101727.78;;;27.53;nan
59407;BME280;45208;32.616;-115.472;2022-11-23T14:08:21;101741.66;;;27.49;nan
59407;BME280;45208;32.616;-115.472;2022-11-23T14:10:49;101746.00;;;27.34;nan
59407;BME280;45208;32.616;-115.472;2022-11-23T14:13:23;101741.19;;;27.07;nan
59407;BME280;45208;32.616;-115.472;2022-11-23T14:15:54;101739.81;;;27.41;nan
59407;BME280;45208;32.616;-115.472;2022-11-23T14:21:30;101738.22;;;27.68;nan
59407;BME280;45208;32.616;-115.472;2022-11-23T14:26:50;101756.09;;;27.79;nan
59407;BME280;45208;32.616;-115.472;2022-11-23T14:29:26;101767.06;;;27.72;nan
59407;BME280;45208;32.616;-115.472;2022-11-23T14:37:40;101768.50;;;27.54;nan
59407;BME280;45208;32.616;-115.472;2022-11-23T14:40:20;101769.47;;;27.46;nan
59407;BME280;45208;32.616;-115.472;2022-11-23T14:42:53;101775.28;;;27.81;nan
59407;BME280;45208;32.616;-115.472;2022-11-23T14:45:20;101775.44;;;28.16;nan
59407;BME280;45208;32.616;-115.472;2022-11-23T14:47:47;101773.69;;;28.39;nan
59407;BME280;45208;32.616;-115.472;2022-11-23T14:50:24;101780.63;;;28.61;nan
59407;BME280;45208;32.616;-115.472;2022-11-23T14:52:52;101773.13;;;28.81;nan
59407;BME280;45208;32.616;-115.472;2022-11-23T14:55:28;101775.56;;;28.98;nan